Time;durP1;ratioP1;P1;durP2;ratioP2;P2;SDS_P1;SDS_P2;PMS_P1;PMS_P2;Temp;Humidity;BMP_temperature;BMP_pressure;BME280_temperature;BME280_humidity;BME280_pressure;Samples;Min_cycle;Max_cycle;Signal;HPM_P1;HPM_P2
2023/08/09 00:01:24;;;;;;;4.82;2.78;;;;;;;18.59;84.37;99741.50;6176733;23;20430;-82
2023/08/09 00:03:51;;;;;;;12.00;3.35;;;;;;;18.58;84.67;99739.84;6151969;23;22297;-83
2023/08/09 00:06:18;;;;;;;5.53;3.17;;;;;;;18.57;84.73;99734.66;6201834;23;20084;-81
2023/08/09 00:08:44;;;;;;;8.50;2.67;;;;;;;18.58;84.57;99739.03;6151843;23;20100;-83
2023/08/09 00:11:11;;;;;;;7.47;3.47;;;;;;;18.53;84.64;99725.31;6152780;23;20025;-82
2023/08/09 00:13:38;;;;;;;3.47;3.17;;;;;;;18.53;84.54;99730.69;6175484;23;20025;-82
2023/08/09 00:16:05;;;;;;;5.82;2.97;;;;;;;18.50;84.39;99731.91;6151441;23;20028;-83
2023/08/09 00:18:32;;;;;;;6.10;2.88;;;;;;;18.49;84.35;99727.53;6127208;23;20510;-83
2023/08/09 00:20:58;;;;;;;3.95;2.70;;;;;;;18.49;84.74;99724.03;6176070;23;20049;-82
2023/08/09 00:23:26;;;;;;;5.72;3.42;;;;;;;18.50;84.79;99720.31;6176197;23;20035;-83
2023/08/09 00:25:52;;;;;;;4.22;2.40;;;;;;;18.48;85.04;99715.13;6201569;23;20075;-82
2023/08/09 00:28:19;;;;;;;7.95;3.10;;;;;;;18.50;85.29;99704.19;6175711;23;20044;-83
2023/08/09 00:30:46;;;;;;;10.55;3.47;;;;;;;18.50;85.49;99709.56;6176915;23;20039;-82
2023/08/09 00:33:13;;;;;;;6.15;2.67;;;;;;;18.51;85.26;99714.75;6176586;23;20391;-82
2023/08/09 00:35:39;;;;;;;6.50;2.75;;;;;;;18.51;85.25;99703.16;6151096;23;20021;-83
2023/08/09 00:38:07;;;;;;;5.75;3.05;;;;;;;18.52;84.86;99702.97;6176351;23;20398;-82
2023/08/09 00:40:34;;;;;;;4.25;2.53;;;;;;;18.50;85.29;99702.34;6151741;23;20021;-82
2023/08/09 00:43:01;;;;;;;4.63;2.70;;;;;;;18.48;85.42;99701.69;6176153;23;20025;-83
2023/08/09 00:45:27;;;;;;;5.95;2.95;;;;;;;18.48;85.36;99700.84;6201499;23;20469;-82
2023/08/09 00:47:54;;;;;;;6.00;2.75;;;;;;;18.48;85.37;99704.38;6176200;23;20021;-82
2023/08/09 00:50:21;;;;;;;6.70;2.90;;;;;;;18.47;85.56;99716.16;6151493;23;20021;-83
2023/08/09 00:52:48;;;;;;;5.65;2.72;;;;;;;18.46;85.19;99709.09;6151284;23;20043;-83
2023/08/09 00:55:15;;;;;;;7.00;2.97;;;;;;;18.45;85.12;99712.81;6226043;23;20079;-82
2023/08/09 00:57:42;;;;;;;8.25;2.78;;;;;;;18.43;84.95;99709.47;6176658;23;20441;-82
2023/08/09 01:00:09;;;;;;;6.07;3.10;;;;;;;18.42;85.43;99714.03;6201309;23;20401;-82
2023/08/09 01:02:36;;;;;;;4.95;2.83;;;;;;;18.40;85.59;99718.75;6126696;23;20023;-82
2023/08/09 01:05:04;;;;;;;7.03;3.03;;;;;;;18.40;85.55;99718.75;6201521;23;20075;-82
2023/08/09 01:07:53;;;;;;;4.22;2.72;;;;;;;18.33;86.28;99722.41;6152108;23;20457;-83
2023/08/09 01:10:29;;;;;;;4.68;2.60;;;;;;;18.34;86.30;99719.53;6186926;23;20026;-82
2023/08/09 01:13:03;;;;;;;4.05;2.65;;;;;;;18.36;86.12;99717.47;6150994;23;20339;-83
2023/08/09 01:15:34;;;;;;;8.20;2.75;;;;;;;18.37;85.90;99712.94;6151017;23;20021;-82
2023/08/09 01:18:02;;;;;;;7.68;2.65;;;;;;;18.37;85.65;99716.47;6150344;23;20028;-82
2023/08/09 01:20:31;;;;;;;4.28;2.38;;;;;;;18.37;85.48;99711.09;6174977;23;20024;-82
2023/08/09 01:23:09;;;;;;;6.07;2.90;;;;;;;18.30;86.10;99712.84;6199600;23;20048;-83
2023/08/09 01:25:35;;;;;;;6.30;2.63;;;;;;;18.32;86.18;99708.13;6175881;23;20033;-82
2023/08/09 01:28:03;;;;;;;5.65;3.00;;;;;;;18.34;86.08;99703.41;6175130;23;20461;-82
2023/08/09 01:30:30;;;;;;;4.47;2.58;;;;;;;18.35;86.23;99702.38;6174596;23;20021;-82
2023/08/09 01:32:57;;;;;;;5.60;2.72;;;;;;;18.38;86.15;99704.66;6174879;23;20029;-82
2023/08/09 01:35:25;;;;;;;8.88;3.38;;;;;;;18.40;85.93;99705.31;6125174;23;20021;-82
2023/08/09 01:37:55;;;;;;;6.78;3.20;;;;;;;18.38;86.38;99703.84;6199450;23;20028;-82
2023/08/09 01:40:23;;;;;;;5.47;2.58;;;;;;;18.38;86.49;99704.66;6175174;23;20048;-82
2023/08/09 01:42:51;;;;;;;4.15;2.83;;;;;;;18.42;85.81;99719.41;6150899;23;20012;-82
2023/08/09 01:45:20;;;;;;;6.65;2.25;;;;;;;18.41;86.02;99719.59;6150785;23;20032;-82
2023/08/09 01:47:47;;;;;;;6.45;2.97;;;;;;;18.42;85.59;99726.66;6149833;23;20722;-82
2023/08/09 01:50:19;;;;;;;6.68;2.50;;;;;;;18.42;85.77;99738.22;6174995;23;20025;-82
2023/08/09 01:52:46;;;;;;;4.30;2.40;;;;;;;18.42;85.55;99729.34;6173718;23;20021;-82
2023/08/09 01:55:17;;;;;;;4.82;3.13;;;;;;;18.44;85.48;99725.44;6175151;23;20445;-84
2023/08/09 01:57:46;;;;;;;4.97;2.83;;;;;;;18.44;84.45;99721.91;6225138;23;20021;-82
2023/08/09 02:00:19;;;;;;;4.32;2.05;;;;;;;18.47;83.77;99734.97;6200817;23;20327;-82
2023/08/09 02:02:47;;;;;;;5.60;2.85;;;;;;;18.46;84.26;99724.41;6174176;23;20029;-82
2023/08/09 02:05:14;;;;;;;3.45;2.75;;;;;;;18.47;84.11;99734.13;6200826;23;20033;-83
2023/08/09 02:07:41;;;;;;;8.02;2.40;;;;;;;18.45;83.71;99728.97;6175163;23;20029;-82
2023/08/09 02:10:10;;;;;;;3.03;2.00;;;;;;;18.46;84.16;99735.16;6174154;23;20084;-83
2023/08/09 02:12:40;;;;;;;4.82;2.45;;;;;;;18.47;83.33;99726.06;6174414;23;20647;-83
2023/08/09 02:15:07;;;;;;;10.73;2.45;;;;;;;18.47;83.30;99731.44;6200124;23;20092;-82
2023/08/09 02:17:36;;;;;;;4.95;2.65;;;;;;;18.46;83.73;99729.78;6150198;23;20063;-82
2023/08/09 02:20:06;;;;;;;4.63;2.30;;;;;;;18.47;83.44;99723.38;6198965;23;20021;-83
2023/08/09 02:22:37;;;;;;;2.85;2.38;;;;;;;18.47;82.75;99731.44;6147954;23;20021;-82
2023/08/09 02:25:04;;;;;;;5.60;2.28;;;;;;;18.47;83.31;99723.38;6149442;23;20460;-82
2023/08/09 02:27:31;;;;;;;5.03;2.45;;;;;;;18.46;83.32;99730.59;6149772;23;20437;-83
2023/08/09 02:30:03;;;;;;;4.18;2.35;;;;;;;18.47;82.98;99732.28;6126235;23;20045;-81
2023/08/09 02:32:33;;;;;;;5.40;2.63;;;;;;;18.44;83.40;99720.06;6150379;23;20091;-81
2023/08/09 02:35:00;;;;;;;6.60;2.92;;;;;;;18.44;83.63;99728.13;6224824;23;20329;-81
2023/08/09 02:37:27;;;;;;;6.65;2.92;;;;;;;18.42;84.00;99711.34;6173445;23;20017;-81
2023/08/09 02:39:54;;;;;;;3.80;2.10;;;;;;;18.42;83.67;99705.97;6174521;23;20508;-82
2023/08/09 02:42:21;;;;;;;5.63;2.42;;;;;;;18.42;83.79;99719.41;6150150;23;20017;-81
2023/08/09 02:44:48;;;;;;;4.25;2.50;;;;;;;18.41;83.94;99712.34;6149000;23;20510;-81
2023/08/09 02:47:15;;;;;;;6.10;2.38;;;;;;;18.40;84.19;99709.88;6149115;23;20024;-82
2023/08/09 02:49:43;;;;;;;6.43;2.60;;;;;;;18.40;84.44;99710.69;6173802;23;20020;-81
2023/08/09 02:52:10;;;;;;;6.38;2.38;;;;;;;18.39;84.65;99705.50;6224421;23;20029;-81
2023/08/09 02:54:37;;;;;;;4.85;3.10;;;;;;;18.34;85.00;99711.47;6173857;23;20071;-82
2023/08/09 02:57:06;;;;;;;6.38;3.20;;;;;;;18.35;85.07;99709.59;6149058;23;20033;-82
2023/08/09 02:59:34;;;;;;;4.13;2.55;;;;;;;18.34;85.40;99707.91;6150575;23;20024;-81
2023/08/09 03:02:01;;;;;;;3.05;2.60;;;;;;;18.34;85.63;99713.31;6173920;23;20029;-82
2023/08/09 03:04:28;;;;;;;4.68;2.92;;;;;;;18.33;85.78;99717.84;6148218;23;20025;-81
2023/08/09 03:06:55;;;;;;;5.85;3.03;;;;;;;18.32;85.62;99710.81;6149035;23;20079;-81
2023/08/09 03:09:22;;;;;;;4.03;2.60;;;;;;;18.32;85.65;99702.75;6199136;23;20021;-82
2023/08/09 03:11:49;;;;;;;7.35;2.50;;;;;;;18.31;85.74;99705.63;6173676;23;20024;-81
2023/08/09 03:14:16;;;;;;;19.90;3.78;;;;;;;18.30;85.94;99702.09;6173046;23;20076;-81
2023/08/09 03:16:48;;;;;;;3.47;2.20;;;;;;;18.25;86.03;99695.63;6173722;23;20478;-81
2023/08/09 03:19:16;;;;;;;6.63;2.75;;;;;;;18.27;86.17;99698.94;6221011;23;20025;-81
2023/08/09 03:21:46;;;;;;;5.55;3.20;;;;;;;18.26;86.07;99694.59;6174695;23;20021;-81
2023/08/09 03:24:13;;;;;;;4.93;3.10;;;;;;;18.24;86.27;99694.78;6223436;23;20063;-81
2023/08/09 03:26:41;;;;;;;3.08;2.20;;;;;;;18.21;86.50;99695.16;6174214;23;20029;-85
2023/08/09 03:29:08;;;;;;;6.05;2.22;;;;;;;18.21;86.63;99697.84;6150238;23;20472;-81
2023/08/09 03:31:35;;;;;;;4.53;2.80;;;;;;;18.19;86.60;99687.31;6174435;23;20072;-81
2023/08/09 03:34:02;;;;;;;2.95;2.40;;;;;;;18.18;86.52;99691.00;6174783;23;20104;-81
2023/08/09 03:36:30;;;;;;;8.00;2.40;;;;;;;18.19;86.93;99692.69;6176186;23;20092;-81
2023/08/09 03:38:57;;;;;;;3.28;2.50;;;;;;;18.17;87.00;99693.88;6176389;23;20037;-81
2023/08/09 03:41:25;;;;;;;5.22;2.50;;;;;;;18.14;86.92;99694.25;6175920;23;20063;-82
2023/08/09 03:43:52;;;;;;;4.97;2.30;;;;;;;18.12;86.66;99702.50;6176356;23;20103;-80
2023/08/09 03:46:19;;;;;;;4.65;2.40;;;;;;;18.12;86.72;99707.88;6151559;23;20024;-81
2023/08/09 03:48:46;;;;;;;3.28;2.25;;;;;;;18.11;86.71;99700.81;6151613;23;20040;-81
2023/08/09 03:51:13;;;;;;;5.80;2.70;;;;;;;18.10;86.74;99698.34;6151318;23;20051;-80
2023/08/09 03:53:41;;;;;;;5.13;2.33;;;;;;;18.09;86.84;99697.53;6175498;23;20028;-81
2023/08/09 03:56:08;;;;;;;5.30;2.38;;;;;;;18.06;86.80;99700.56;6176207;23;20088;-80
2023/08/09 03:58:34;;;;;;;9.10;2.38;;;;;;;18.06;86.51;99703.25;6175448;23;20068;-81
2023/08/09 04:01:01;;;;;;;3.40;2.20;;;;;;;18.03;86.38;99702.78;6174589;23;20096;-82
2023/08/09 04:03:28;;;;;;;5.47;2.28;;;;;;;18.02;86.28;99709.22;6172971;23;20025;-82
2023/08/09 04:05:55;;;;;;;3.88;2.13;;;;;;;17.99;86.09;99702.34;6174987;23;20021;-82
2023/08/09 04:08:26;;;;;;;2.92;2.38;;;;;;;18.00;86.06;99718.25;6223151;23;20075;-82
2023/08/09 04:10:54;;;;;;;4.50;2.78;;;;;;;18.00;86.18;99712.06;6174795;23;20469;-82
2023/08/09 04:13:21;;;;;;;5.30;2.53;;;;;;;17.97;86.39;99710.59;6148525;23;20021;-82
2023/08/09 04:15:48;;;;;;;5.07;2.47;;;;;;;17.99;86.07;99715.78;6149750;23;20095;-82
2023/08/09 04:18:16;;;;;;;4.95;2.05;;;;;;;17.98;86.35;99708.72;6148785;23;20025;-82
2023/08/09 04:20:45;;;;;;;5.63;2.47;;;;;;;17.98;86.47;99706.03;6173757;23;20056;-82
2023/08/09 04:23:12;;;;;;;3.72;2.53;;;;;;;17.98;86.31;99709.56;6174231;23;20033;-82
2023/08/09 04:25:39;;;;;;;2.72;2.53;;;;;;;17.97;86.48;99707.91;6149550;23;20012;-82
2023/08/09 04:28:08;;;;;;;3.97;1.95;;;;;;;17.96;86.40;99706.25;6173787;23;20024;-83
2023/08/09 04:30:37;;;;;;;2.85;2.47;;;;;;;17.95;86.35;99718.00;6199414;23;20080;-82
2023/08/09 04:33:04;;;;;;;4.63;2.20;;;;;;;17.91;86.44;99718.53;6197536;23;20463;-82
2023/08/09 04:35:31;;;;;;;4.20;2.25;;;;;;;17.92;86.26;99718.38;6174518;23;20025;-82
2023/08/09 04:37:58;;;;;;;3.72;2.17;;;;;;;17.92;86.09;99723.75;6149324;23;20112;-82
2023/08/09 04:40:25;;;;;;;6.10;2.88;;;;;;;17.91;86.75;99724.78;6173587;23;20032;-83
2023/08/09 04:42:52;;;;;;;4.28;2.60;;;;;;;17.94;86.65;99726.25;6173075;23;20091;-82
2023/08/09 04:45:19;;;;;;;5.40;2.42;;;;;;;17.95;86.37;99726.06;6198038;23;20104;-82
2023/08/09 04:47:47;;;;;;;7.43;2.72;;;;;;;17.94;86.61;99724.41;6176366;23;20017;-82
2023/08/09 04:50:14;;;;;;;5.80;2.70;;;;;;;17.98;86.82;99720.31;6173256;23;20033;-82
2023/08/09 04:52:42;;;;;;;7.13;2.75;;;;;;;17.98;87.20;99720.31;6148739;23;20021;-82
2023/08/09 04:55:08;;;;;;;3.15;2.80;;;;;;;17.99;87.42;99726.53;6197907;23;20766;-82
2023/08/09 04:57:35;;;;;;;9.02;3.58;;;;;;;17.98;87.53;99728.34;6199070;23;20025;-82
2023/08/09 05:00:08;;;;;;;7.88;3.65;;;;;;;17.98;87.24;99728.34;6173869;23;20096;-82
2023/08/09 05:02:36;;;;;;;5.78;3.40;;;;;;;17.99;87.18;99724.66;6173658;23;20017;-82
2023/08/09 05:05:04;;;;;;;5.75;3.60;;;;;;;17.98;87.19;99719.47;6148183;23;20024;-82
2023/08/09 05:07:31;;;;;;;5.57;3.58;;;;;;;17.96;87.13;99724.19;6198037;23;20032;-82
2023/08/09 05:10:02;;;;;;;4.68;2.80;;;;;;;17.98;87.01;99724.84;6149931;23;20021;-82
2023/08/09 05:12:29;;;;;;;5.90;3.38;;;;;;;17.99;87.22;99724.66;6198551;23;20055;-82
2023/08/09 05:14:57;;;;;;;7.57;3.17;;;;;;;18.02;87.62;99734.22;6198170;23;20049;-82
2023/08/09 05:17:24;;;;;;;7.80;3.30;;;;;;;18.02;87.55;99728.00;6196811;23;20089;-83
2023/08/09 05:19:50;;;;;;;7.25;3.25;;;;;;;18.02;87.31;99733.38;6174080;23;20393;-82
2023/08/09 05:22:17;;;;;;;7.30;3.80;;;;;;;18.00;87.37;99737.06;6223840;23;20475;-82
2023/08/09 05:24:44;;;;;;;5.68;3.15;;;;;;;18.01;87.76;99737.91;6147949;23;20031;-84
2023/08/09 05:27:11;;;;;;;4.88;3.40;;;;;;;18.01;88.35;99737.91;6199171;23;20017;-82
2023/08/09 05:29:37;;;;;;;6.63;3.28;;;;;;;18.01;88.77;99743.28;6175796;23;20345;-83
2023/08/09 05:32:05;;;;;;;9.60;3.97;;;;;;;18.02;nan;99736.91;6173585;23;20091;-83
2023/08/09 05:34:31;;;;;;;5.15;3.20;;;;;;;18.03;89.42;99740.41;6196882;23;20097;-82
2023/08/09 05:36:58;;;;;;;7.38;3.40;;;;;;;18.03;89.44;99746.63;6173768;23;20028;-82
2023/08/09 05:39:26;;;;;;;6.18;3.47;;;;;;;18.03;89.68;99733.19;6174422;23;20032;-82
2023/08/09 05:41:53;;;;;;;5.93;3.17;;;;;;;18.05;89.92;99735.69;6174039;23;20028;-82
2023/08/09 05:44:20;;;;;;;4.60;3.45;;;;;;;18.04;89.95;99734.00;6172393;23;20421;-83
2023/08/09 05:46:46;;;;;;;5.75;3.55;;;;;;;18.06;89.80;99731.97;6174031;23;20021;-83
2023/08/09 05:49:13;;;;;;;5.60;3.60;;;;;;;18.06;90.15;99732.81;6174101;23;20458;-83
2023/08/09 05:51:40;;;;;;;7.15;3.47;;;;;;;18.06;90.22;99731.97;6148991;23;20100;-83
2023/08/09 05:54:07;;;;;;;4.70;3.28;;;;;;;18.04;89.86;99726.81;6172407;23;20024;-82
2023/08/09 05:56:34;;;;;;;4.18;3.03;;;;;;;18.04;89.90;99728.63;6173591;23;20453;-82
2023/08/09 05:59:00;;;;;;;7.32;3.38;;;;;;;18.05;89.96;99741.91;6149161;23;20861;-83
2023/08/09 06:01:29;;;;;;;4.35;3.53;;;;;;;18.06;89.95;99745.41;6173831;23;20017;-83
2023/08/09 06:03:55;;;;;;;6.00;3.33;;;;;;;18.05;90.20;99746.44;6172169;23;20024;-82
2023/08/09 06:06:23;;;;;;;5.07;2.80;;;;;;;18.04;90.29;99756.34;6149082;23;20013;-83
2023/08/09 06:08:50;;;;;;;5.60;3.00;;;;;;;17.99;90.70;99788.31;6199145;23;20013;-82
2023/08/09 06:11:17;;;;;;;6.53;3.40;;;;;;;17.96;90.39;99786.84;6196245;23;20643;-81
2023/08/09 06:13:44;;;;;;;5.65;3.05;;;;;;;17.89;91.02;99793.97;6171795;23;20345;-82
2023/08/09 06:16:11;;;;;;;6.25;3.13;;;;;;;17.92;90.06;99790.91;6197888;23;20040;-81
2023/08/09 06:18:38;;;;;;;5.00;3.55;;;;;;;17.92;89.76;99790.91;6173708;23;20028;-81
2023/08/09 06:21:04;;;;;;;7.65;3.70;;;;;;;17.96;89.86;99788.66;6172331;23;20025;-83
2023/08/09 06:23:31;;;;;;;7.15;3.63;;;;;;;17.98;90.34;99787.47;6146013;23;20094;-82
2023/08/09 06:25:58;;;;;;;5.82;3.40;;;;;;;18.00;90.67;99785.44;6173294;23;20029;-82
2023/08/09 06:28:25;;;;;;;4.78;3.50;;;;;;;18.04;91.21;99790.44;6147347;23;20017;-82
2023/08/09 06:30:51;;;;;;;5.20;3.75;;;;;;;18.06;91.47;99789.22;6172958;23;20048;-82
2023/08/09 06:33:18;;;;;;;5.65;3.30;;;;;;;18.08;91.46;99787.19;6170913;23;20021;-82
2023/08/09 06:35:45;;;;;;;6.10;3.67;;;;;;;18.12;91.61;99783.13;6173267;23;20042;-82
2023/08/09 06:38:12;;;;;;;4.13;3.40;;;;;;;18.15;92.05;99785.44;6170052;23;20045;-82
2023/08/09 06:40:42;;;;;;;6.72;3.45;;;;;;;18.20;92.17;99790.25;6147464;23;20025;-81
2023/08/09 06:43:08;;;;;;;6.10;3.55;;;;;;;18.26;92.13;99794.88;6171841;23;20478;-83
2023/08/09 06:45:38;;;;;;;8.40;3.00;;;;;;;18.31;92.49;99786.25;6147864;23;20021;-82
2023/08/09 06:48:07;;;;;;;8.63;3.38;;;;;;;18.34;91.63;99778.69;6172193;23;20497;-83
2023/08/09 06:50:35;;;;;;;3.35;2.72;;;;;;;18.36;91.44;99784.66;6174882;23;20029;-85
2023/08/09 06:53:02;;;;;;;4.97;3.08;;;;;;;18.40;91.60;99782.47;6197115;23;20356;-84
2023/08/09 06:55:29;;;;;;;5.90;2.83;;;;;;;18.42;91.15;99775.03;6196609;23;20075;-83
2023/08/09 06:57:55;;;;;;;6.35;2.90;;;;;;;18.44;91.26;99771.16;6174402;23;20023;-84
2023/08/09 07:00:22;;;;;;;4.18;2.83;;;;;;;18.47;91.62;99772.63;6172810;23;20020;-85
2023/08/09 07:02:50;;;;;;;3.60;2.70;;;;;;;18.51;91.15;99781.97;6196961;23;20088;-82
2023/08/09 07:05:21;;;;;;;2.80;2.45;;;;;;;18.49;90.51;99780.47;6172300;23;20096;-83
2023/08/09 07:07:52;;;;;;;6.28;3.00;;;;;;;18.49;90.51;99784.00;6180697;23;20020;-83
2023/08/09 07:10:19;;;;;;;4.72;2.90;;;;;;;18.51;91.15;99781.97;6208688;23;20025;-83
2023/08/09 07:12:46;;;;;;;5.57;2.78;;;;;;;18.55;90.72;99783.25;6195743;23;20021;-83
2023/08/09 07:15:12;;;;;;;6.20;2.85;;;;;;;18.56;90.44;99781.41;6172929;23;20013;-83
2023/08/09 07:17:39;;;;;;;5.07;2.60;;;;;;;18.58;89.41;99782.06;6173142;23;20021;-84
2023/08/09 07:20:07;;;;;;;4.95;3.15;;;;;;;18.63;89.56;99785.00;6197129;23;20041;-84
2023/08/09 07:22:34;;;;;;;4.43;2.65;;;;;;;18.65;89.03;99785.66;6147889;23;20078;-83
2023/08/09 07:25:01;;;;;;;3.90;2.30;;;;;;;18.70;89.52;99795.81;6221376;23;20021;-84
2023/08/09 07:27:28;;;;;;;5.18;3.60;;;;;;;18.72;89.12;99789.22;6198546;23;20036;-84
2023/08/09 07:29:55;;;;;;;6.50;3.08;;;;;;;18.75;89.05;99799.66;6123934;23;20017;-84
2023/08/09 07:32:22;;;;;;;5.80;2.80;;;;;;;18.76;88.68;99806.69;6147604;23;20027;-84
2023/08/09 07:34:49;;;;;;;3.58;2.30;;;;;;;18.77;89.06;99813.75;6171769;23;20099;-84
2023/08/09 07:37:16;;;;;;;3.33;2.63;;;;;;;18.77;89.47;99818.28;6198203;23;20025;-84
2023/08/09 07:39:43;;;;;;;2.80;2.20;;;;;;;18.77;89.68;99819.13;6148329;23;20048;-84
2023/08/09 07:42:10;;;;;;;3.97;2.88;;;;;;;18.79;89.84;99816.25;6171244;23;23723;-85
2023/08/09 07:44:37;;;;;;;5.10;3.28;;;;;;;18.78;90.37;99826.19;6122999;23;20013;-84
2023/08/09 07:47:04;;;;;;;4.13;2.60;;;;;;;18.79;90.36;99817.06;6172178;23;20044;-84
2023/08/09 07:49:31;;;;;;;4.93;2.67;;;;;;;18.81;90.79;99830.34;6147713;23;20013;-84
2023/08/09 07:51:57;;;;;;;3.50;2.40;;;;;;;18.82;90.58;99827.44;6123667;23;20033;-84
2023/08/09 07:54:24;;;;;;;5.95;2.75;;;;;;;18.83;90.37;99836.38;6196044;23;20068;-85
2023/08/09 07:56:51;;;;;;;4.30;2.88;;;;;;;18.83;89.78;99845.28;6173777;23;20017;-84
2023/08/09 07:59:18;;;;;;;5.68;3.20;;;;;;;18.83;89.54;99839.91;6196992;23;20024;-84
2023/08/09 08:01:45;;;;;;;4.15;2.72;;;;;;;18.86;89.36;99850.28;6147818;23;20775;-85
2023/08/09 08:04:11;;;;;;;6.07;3.17;;;;;;;18.91;90.39;99849.72;6197282;23;20021;-85
2023/08/09 08:06:38;;;;;;;5.32;2.30;;;;;;;18.89;90.62;99850.94;6195859;23;20383;-85
2023/08/09 08:09:05;;;;;;;4.78;2.60;;;;;;;18.95;90.67;99859.06;6172105;23;20025;-85
2023/08/09 08:11:32;;;;;;;5.63;2.90;;;;;;;18.98;90.71;99858.72;6148607;23;20013;-85
2023/08/09 08:13:59;;;;;;;4.95;2.55;;;;;;;19.00;90.55;99855.81;6171086;23;20021;-85
2023/08/09 08:16:26;;;;;;;4.07;2.40;;;;;;;19.05;90.39;99856.06;6173188;23;20033;-85
2023/08/09 08:18:53;;;;;;;7.07;2.72;;;;;;;19.08;90.75;99853.00;6171307;23;20048;-85
2023/08/09 08:21:19;;;;;;;4.88;3.03;;;;;;;19.13;90.31;99842.47;6197734;23;20480;-85
2023/08/09 08:23:46;;;;;;;2.90;2.60;;;;;;;19.16;89.85;99850.19;6173386;23;20023;-85
2023/08/09 08:26:13;;;;;;;6.03;2.90;;;;;;;19.17;89.11;99853.72;6198655;23;20699;-86
2023/08/09 08:28:40;;;;;;;5.85;2.88;;;;;;;19.17;89.14;99854.56;6174450;23;20029;-85
2023/08/09 08:31:07;;;;;;;7.18;2.72;;;;;;;19.15;89.65;99853.91;6150703;23;20694;-86
2023/08/09 08:33:34;;;;;;;3.80;2.90;;;;;;;19.11;88.78;99868.78;6222698;23;20021;-85
2023/08/09 08:36:02;;;;;;;3.80;2.40;;;;;;;19.07;88.25;99873.69;6172454;23;20033;-85
2023/08/09 08:38:50;;;;;;;5.78;3.35;;;;;;;19.03;88.69;99885.88;6149117;23;20021;-85
2023/08/09 08:41:16;;;;;;;9.15;3.50;;;;;;;19.01;88.86;99890.63;6149348;23;20021;-86
2023/08/09 08:43:44;;;;;;;7.07;2.78;;;;;;;18.97;88.57;99892.00;6198481;23;20036;-85
2023/08/09 08:46:14;;;;;;;5.88;2.13;;;;;;;18.95;88.61;99885.97;6148787;23;20102;-86
2023/08/09 08:48:46;;;;;;;3.95;2.80;;;;;;;18.93;88.78;99882.66;6199687;23;20023;-85
2023/08/09 08:51:13;;;;;;;4.95;2.83;;;;;;;18.95;88.93;99883.28;6199645;23;20453;-85
2023/08/09 08:53:40;;;;;;;8.20;2.97;;;;;;;18.97;88.20;99883.09;6197848;23;20063;-85
2023/08/09 08:56:07;;;;;;;4.32;1.92;;;;;;;18.97;87.99;99889.31;6198882;23;20045;-85
2023/08/09 08:58:34;;;;;;;4.15;2.55;;;;;;;18.99;87.95;99881.06;6199006;23;20060;-85
2023/08/09 09:01:03;;;;;;;3.95;2.42;;;;;;;19.04;88.13;99886.72;6149335;23;20029;-85
2023/08/09 09:03:30;;;;;;;4.15;2.45;;;;;;;19.08;88.37;99893.34;6148116;23;20044;-86
2023/08/09 09:05:56;;;;;;;5.80;2.47;;;;;;;19.07;87.06;99897.91;6173870;23;20818;-85
2023/08/09 09:08:23;;;;;;;5.72;2.17;;;;;;;19.08;87.05;99898.75;6174523;23;20100;-85
2023/08/09 09:10:53;;;;;;;6.45;2.58;;;;;;;19.09;87.49;99909.34;6198190;23;20087;-86
2023/08/09 09:13:25;;;;;;;5.90;2.30;;;;;;;19.10;87.39;99910.16;6147910;23;20092;-85
2023/08/09 09:15:57;;;;;;;5.72;2.50;;;;;;;19.16;87.68;99900.47;6199269;23;20445;-86
2023/08/09 09:18:24;;;;;;;4.43;2.37;;;;;;;19.19;88.24;99898.25;6224182;23;20017;-85
2023/08/09 09:20:53;;;;;;;2.78;2.45;;;;;;;19.21;87.88;99901.59;6172989;23;20412;-86
2023/08/09 09:23:27;;;;;;;3.83;2.40;;;;;;;19.23;87.20;99906.78;6172514;23;20025;-85
2023/08/09 09:26:08;;;;;;;2.60;2.40;;;;;;;19.26;87.45;99901.88;6174096;23;20017;-86
2023/08/09 09:28:45;;;;;;;3.50;2.60;;;;;;;19.32;87.14;99904.81;6148835;23;20096;-86
2023/08/09 09:31:13;;;;;;;3.03;2.20;;;;;;;19.40;86.88;99902.84;6147261;23;20096;-87
2023/08/09 09:33:44;;;;;;;3.85;2.05;;;;;;;19.44;87.01;99900.59;6223191;23;20456;-86
2023/08/09 09:36:12;;;;;;;5.20;2.33;;;;;;;19.54;86.82;99898.44;6222955;23;20357;-85
2023/08/09 09:38:39;;;;;;;2.95;2.47;;;;;;;19.57;86.81;99899.91;6174371;23;20048;-87
2023/08/09 09:41:08;;;;;;;4.53;2.55;;;;;;;19.60;86.70;99894.13;6172434;23;20021;-86
2023/08/09 09:43:41;;;;;;;4.18;2.20;;;;;;;19.59;86.12;99901.38;6148108;23;20017;-86
2023/08/09 09:46:19;;;;;;;;;;;;;;;19.49;86.71;99908.94;6174259;23;20027;-86
2023/08/09 09:49:03;;;;;;;3.22;2.45;;;;;;;19.61;86.66;99909.25;6126772;23;19943;-86
2023/08/09 09:51:30;;;;;;;5.72;2.58;;;;;;;19.66;86.53;99904.13;6197965;23;20029;-87
2023/08/09 09:53:57;;;;;;;4.32;2.53;;;;;;;19.69;86.96;99903.75;6197381;23;20040;-86
2023/08/09 09:56:24;;;;;;;6.53;4.00;;;;;;;19.76;86.81;99904.66;6149318;23;20127;-86
2023/08/09 09:58:52;;;;;;;4.85;2.85;;;;;;;19.78;86.18;99889.13;6173354;23;20045;-86
2023/08/09 10:01:20;;;;;;;2.22;2.03;;;;;;;19.79;86.13;99898.88;6148224;23;20021;-87
2023/08/09 10:03:49;;;;;;;4.25;2.72;;;;;;;19.80;86.33;99892.47;6222856;23;20472;-87
2023/08/09 10:06:21;;;;;;;7.97;2.37;;;;;;;19.82;86.47;99886.88;6197222;23;20025;-86
2023/08/09 10:08:52;;;;;;;3.08;2.08;;;;;;;19.81;86.32;99891.44;6222363;23;20455;-86
2023/08/09 10:11:22;;;;;;;3.30;2.10;;;;;;;19.85;85.89;99891.91;6148456;23;20029;-86
2023/08/09 10:13:49;;;;;;;3.60;2.20;;;;;;;19.85;86.52;99881.94;6172959;23;23973;-87
2023/08/09 10:16:17;;;;;;;8.27;2.65;;;;;;;19.89;86.41;99876.97;6172943;23;20446;-87
2023/08/09 10:18:48;;;;;;;3.63;2.20;;;;;;;19.94;86.18;99880.75;6198120;23;20382;-87
2023/08/09 10:21:16;;;;;;;3.05;2.30;;;;;;;19.89;85.57;99882.38;6173173;23;20023;-87
2023/08/09 10:23:55;;;;;;;4.68;2.15;;;;;;;19.87;86.33;99879.88;6172827;23;20021;-87
2023/08/09 10:26:29;;;;;;;6.18;2.63;;;;;;;19.90;85.98;99884.88;6171243;23;20048;-87
2023/08/09 10:29:08;;;;;;;2.78;1.88;;;;;;;19.90;84.44;99887.56;6173569;23;20028;-87
2023/08/09 10:31:57;;;;;;;2.80;1.95;;;;;;;19.84;85.09;99893.72;6148864;23;20075;-87
2023/08/09 10:34:40;;;;;;;2.55;1.80;;;;;;;19.78;84.87;99888.31;6146498;23;20730;-86
2023/08/09 10:37:11;;;;;;;2.95;1.83;;;;;;;19.84;84.96;99899.13;6149291;23;20087;-85
2023/08/09 10:39:39;;;;;;;3.13;1.70;;;;;;;19.82;85.19;99892.25;6197766;23;20031;-86
2023/08/09 10:42:09;;;;;;;3.78;1.90;;;;;;;19.84;85.16;99890.22;6197728;23;20079;-86
2023/08/09 10:44:39;;;;;;;4.35;2.05;;;;;;;19.86;84.90;99888.16;6171602;23;20029;-85
2023/08/09 10:47:10;;;;;;;2.58;1.45;;;;;;;19.85;84.99;99891.91;6173020;23;20056;-85
2023/08/09 10:49:49;;;;;;;1.88;1.55;;;;;;;19.79;83.50;99898.03;6147941;23;20449;-86
2023/08/09 10:52:17;;;;;;;3.38;1.65;;;;;;;19.85;83.44;99881.94;6197954;23;20027;-86
2023/08/09 10:55:18;;;;;;;2.72;2.00;;;;;;;19.75;82.86;99891.41;6219779;23;20404;-86
2023/08/09 10:57:49;;;;;;;2.60;1.90;;;;;;;19.86;83.89;99898.94;6223012;23;20036;-85
2023/08/09 11:00:18;;;;;;;2.90;2.08;;;;;;;19.87;83.65;99892.50;6149310;23;20028;-86
2023/08/09 11:02:45;;;;;;;3.25;2.13;;;;;;;19.88;83.60;99900.41;6147751;23;20476;-86
2023/08/09 11:05:13;;;;;;;6.68;2.60;;;;;;;19.92;83.59;99892.75;6172763;23;20017;-86
2023/08/09 11:07:47;;;;;;;3.92;2.35;;;;;;;19.89;83.53;99887.75;6147712;23;20453;-86
2023/08/09 11:10:15;;;;;;;2.40;2.20;;;;;;;19.88;84.60;99883.41;6148315;23;20024;-86
2023/08/09 11:12:44;;;;;;;2.10;2.00;;;;;;;19.89;84.05;99893.16;6171642;23;20032;-86
2023/08/09 11:15:11;;;;;;;3.13;2.13;;;;;;;19.90;83.06;99900.22;6147320;23;20385;-86
2023/08/09 11:17:48;;;;;;;2.38;2.17;;;;;;;19.77;85.33;99906.34;6173282;23;20044;-86
2023/08/09 11:20:15;;;;;;;3.78;2.40;;;;;;;19.75;86.46;99915.66;6146870;23;20029;-85
2023/08/09 11:23:02;;;;;;;5.75;2.83;;;;;;;19.57;88.69;99913.38;6196548;23;20025;-88
2023/08/09 11:25:31;;;;;;;3.28;2.97;;;;;;;19.42;90.98;99919.63;6172261;23;20048;-90
2023/08/09 11:27:59;;;;;;;4.38;2.78;;;;;;;19.40;90.48;99918.16;6123725;23;20131;-88
2023/08/09 11:30:28;;;;;;;5.80;3.30;;;;;;;19.32;90.51;99918.28;6146056;23;20017;-88
2023/08/09 11:32:59;;;;;;;3.20;2.90;;;;;;;19.28;90.19;99910.59;6146445;23;20084;-88
2023/08/09 11:35:43;;;;;;;4.70;2.95;;;;;;;19.27;91.08;99918.84;6196646;23;20083;-87
2023/08/09 11:38:13;;;;;;;3.85;3.28;;;;;;;19.16;93.05;99920.19;6148544;23;20028;-88
2023/08/09 11:40:45;;;;;;;7.53;3.60;;;;;;;19.17;94.14;99921.00;6123695;23;20436;-88